Squamish, Canada
Current Conditions -  °F | °C
As of 7:00 AM on Thursday 30 Oct 2014 (Local Time) from CWAE Reporting Station
Broken Clouds Broken Clouds  
Wind Chill: 41°   Ceiling: 5000
Heat Index: 41°   Visibility: 15mi
Dew Point: 41°   Wind: 0mph
Humidity: 100%   Direction: NA
Pressure: 29.94"   Gusts: NA
Location:  49.7°N, 123.15°W
Report Text: CWAE 301400Z 00000KT 15SM BKN050 05/05 A2994 RMK SC5 WND ESTD SLP147
Loading
Personal Weather Stations






























Interactive Weather Map
Tropical Storm Tracking
New forecast layout! Learn more

10-Day Weather Forecast

Advertisements
Track Severe Weather on mobile